Time;durP1;ratioP1;P1;durP2;ratioP2;P2;SDS_P1;SDS_P2;PMS_P1;PMS_P2;Temp;Humidity;BMP_temperature;BMP_pressure;BME280_temperature;BME280_humidity;BME280_pressure;Samples;Min_cycle;Max_cycle;Signal;HPM_P1;HPM_P2
2024/02/19 00:29:10;;;;;;;;;;;;;;;;;;;;;
2024/02/19 00:44:52;;;;;;;3.88;1.02;;;;;;;;;;4837373;29;20049;-86
2024/02/19 00:47:36;;;;;;;5.35;2.05;;;;;;;;;;4809435;29;20130;-86
2024/02/19 00:53:00;;;;;;;5.88;1.25;;;;;;;;;;4861575;29;20053;-86
2024/02/19 00:55:45;;;;;;;6.90;1.13;;;;;;;;;;4866743;24;20084;-86
2024/02/19 00:58:29;;;;;;;6.50;1.75;;;;;;;;;;4844222;29;20044;-86
2024/02/19 01:01:39;;;;;;;9.43;2.17;;;;;;;;;;4860414;29;20408;-86
2024/02/19 01:04:56;;;;;;;;;;;;;;;;;;;;;
2024/02/19 01:07:23;;;;;;;7.20;1.90;;;;;;;;;;4867395;29;20112;-85
2024/02/19 01:10:20;;;;;;;3.60;1.50;;;;;;;;;;4849176;29;20053;-85
2024/02/19 01:13:22;;;;;;;;;;;;;;;;;;;;;
2024/02/19 01:19:38;;;;;;;;;;;;;;;;;;;;;
2024/02/19 01:22:33;;;;;;;6.25;1.90;;;;;;;;;;4806183;29;20043;-86
2024/02/19 01:25:20;;;;;;;;;;;;;;;;;;;;;
2024/02/19 01:43:45;;;;;;;7.57;1.35;;;;;;;;;;4949218;24;20101;-86
2024/02/19 02:43:34;;;;;;;4.63;1.20;;;;;;;;;;4836814;29;20090;-85
2024/02/19 02:46:06;;;;;;;5.82;1.38;;;;;;;;;;4815337;29;20049;-85
2024/02/19 02:48:54;;;;;;;4.18;1.02;;;;;;;;;;4807124;29;20046;-85
2024/02/19 03:10:32;;;;;;;3.58;1.02;;;;;;;;;;4766969;30;20407;-85
2024/02/19 03:13:06;;;;;;;1.57;0.60;;;;;;;;;;4771354;29;20084;-84
2024/02/19 03:15:35;;;;;;;4.30;0.98;;;;;;;;;;4787754;29;20284;-85
2024/02/19 03:18:07;;;;;;;3.08;1.23;;;;;;;;;;4788576;29;20046;-85
2024/02/19 03:20:37;;;;;;;2.35;0.57;;;;;;;;;;4788500;29;20122;-86
2024/02/19 03:23:12;;;;;;;5.13;1.17;;;;;;;;;;4839228;24;20077;-86
2024/02/19 03:25:46;;;;;;;2.17;0.50;;;;;;;;;;4843790;29;20049;-85
2024/02/19 03:28:35;;;;;;;3.75;1.02;;;;;;;;;;4844039;29;20117;-85
2024/02/19 03:31:26;;;;;;;4.95;0.85;;;;;;;;;;4834444;29;20045;-86
2024/02/19 03:34:10;;;;;;;2.35;0.77;;;;;;;;;;4843040;29;20048;-85
2024/02/19 03:36:52;;;;;;;3.05;0.80;;;;;;;;;;4843392;29;20034;-85
2024/02/19 03:39:18;;;;;;;;;;;;;;;;;;4843905;29;20484;-85
2024/02/19 03:41:50;;;;;;;2.58;0.70;;;;;;;;;;4843175;29;19961;-85
2024/02/19 03:44:19;;;;;;;3.25;1.25;;;;;;;;;;4843567;29;20433;-85
2024/02/19 03:46:45;;;;;;;3.03;0.82;;;;;;;;;;4843355;29;20041;-85
2024/02/19 03:49:14;;;;;;;3.15;1.05;;;;;;;;;;4845003;29;20065;-85
2024/02/19 04:20:42;;;;;;;5.72;1.48;;;;;;;;;;4852710;29;20045;-86
2024/02/19 04:31:32;;;;;;;1.40;0.80;;;;;;;;;;4839775;29;20065;-85
2024/02/19 05:23:10;;;;;;;2.28;0.57;;;;;;;;;;3295740;23;21088;-85
2024/02/19 05:25:58;;;;;;;4.07;0.77;;;;;;;;;;4838207;29;20398;-84
2024/02/19 06:06:43;;;;;;;4.75;1.27;;;;;;;;;;1820541;24;20064;-85
2024/02/19 06:09:09;;;;;;;4.72;1.33;;;;;;;;;;4843879;29;20825;-82
2024/02/19 06:11:40;;;;;;;9.75;1.05;;;;;;;;;;4856132;29;20052;-84
2024/02/19 06:14:09;;;;;;;9.68;2.47;;;;;;;;;;4860383;29;20083;-86
2024/02/19 06:16:40;;;;;;;13.32;2.17;;;;;;;;;;4843873;29;20042;-85
2024/02/19 06:19:08;;;;;;;10.43;3.97;;;;;;;;;;4860204;29;20045;-83
2024/02/19 06:21:34;;;;;;;10.35;3.45;;;;;;;;;;4847894;29;20054;-82
2024/02/19 06:24:00;;;;;;;10.07;3.42;;;;;;;;;;4841975;29;20037;-82
2024/02/19 06:26:26;;;;;;;;;;;;;;;;;;4855433;29;20054;-82
2024/02/19 06:28:52;;;;;;;5.68;1.75;;;;;;;;;;4855254;29;19917;-83
2024/02/19 06:31:18;;;;;;;8.32;1.88;;;;;;;;;;4845813;29;20079;-81
2024/02/19 06:33:44;;;;;;;;;;;;;;;;;;4859598;29;20056;-86
2024/02/19 06:36:10;;;;;;;11.32;3.08;;;;;;;;;;4842021;29;20290;-82
2024/02/19 06:38:36;;;;;;;9.77;2.60;;;;;;;;;;4860364;29;20044;-83
2024/02/19 06:41:02;;;;;;;8.95;2.50;;;;;;;;;;4859231;29;20056;-83
2024/02/19 06:43:28;;;;;;;5.07;1.65;;;;;;;;;;4858797;29;20033;-83
2024/02/19 06:45:54;;;;;;;8.13;2.47;;;;;;;;;;4850415;29;20053;-84
2024/02/19 06:48:20;;;;;;;5.13;1.95;;;;;;;;;;4830285;29;20045;-84
2024/02/19 06:50:46;;;;;;;6.53;1.58;;;;;;;;;;4852096;29;20058;-82
2024/02/19 06:53:12;;;;;;;9.50;2.80;;;;;;;;;;4842595;29;20042;-82
2024/02/19 06:55:38;;;;;;;5.18;1.40;;;;;;;;;;4849159;29;20057;-83
2024/02/19 06:58:04;;;;;;;5.05;1.83;;;;;;;;;;4838414;29;20476;-82
2024/02/19 07:00:30;;;;;;;;;;;;;;;;;;4859163;29;20045;-83
2024/02/19 07:02:56;;;;;;;;;;;;;;;;;;4825895;29;19919;-84
2024/02/19 07:05:22;;;;;;;;;;;;;;;;;;4854439;29;19951;-83
2024/02/19 07:07:49;;;;;;;7.20;2.38;;;;;;;;;;4850313;29;20015;-83
2024/02/19 07:10:15;;;;;;;;;;;;;;;;;;4854916;29;20072;-83
2024/02/19 07:12:41;;;;;;;6.65;2.33;;;;;;;;;;4853939;29;20369;-83
2024/02/19 07:15:07;;;;;;;16.23;2.33;;;;;;;;;;4838749;29;20038;-83
2024/02/19 07:17:34;;;;;;;13.05;3.25;;;;;;;;;;4855273;29;20484;-84
2024/02/19 07:20:00;;;;;;;10.30;3.50;;;;;;;;;;4840457;29;20053;-84
2024/02/19 07:22:29;;;;;;;11.48;3.92;;;;;;;;;;4839652;29;20042;-86
2024/02/19 07:24:55;;;;;;;13.65;6.60;;;;;;;;;;4836843;29;20790;-84
2024/02/19 07:27:21;;;;;;;12.25;4.65;;;;;;;;;;4838051;29;20049;-84
2024/02/19 07:29:47;;;;;;;12.25;4.03;;;;;;;;;;4826203;29;20050;-84
2024/02/19 07:32:13;;;;;;;13.57;4.25;;;;;;;;;;4838198;29;20069;-84
2024/02/19 07:34:39;;;;;;;15.57;4.13;;;;;;;;;;4844567;29;20507;-84
2024/02/19 07:37:05;;;;;;;11.13;3.38;;;;;;;;;;4836109;29;20148;-84
2024/02/19 07:39:32;;;;;;;9.90;2.78;;;;;;;;;;4843491;29;20038;-83
2024/02/19 07:41:58;;;;;;;12.48;3.15;;;;;;;;;;4857755;24;20069;-84
2024/02/19 07:44:29;;;;;;;8.30;2.05;;;;;;;;;;4839363;29;20041;-84
2024/02/19 07:46:58;;;;;;;7.95;2.28;;;;;;;;;;4838655;29;20177;-84
2024/02/19 07:49:24;;;;;;;16.05;3.60;;;;;;;;;;4826008;29;20042;-84
2024/02/19 07:51:53;;;;;;;9.98;3.35;;;;;;;;;;4823806;29;20199;-84
2024/02/19 07:54:22;;;;;;;12.48;3.83;;;;;;;;;;4822919;29;20123;-83
2024/02/19 07:56:51;;;;;;;9.38;2.78;;;;;;;;;;4824529;29;20057;-83
2024/02/19 07:59:22;;;;;;;7.25;3.35;;;;;;;;;;4826023;29;20046;-83
2024/02/19 08:01:48;;;;;;;9.93;4.03;;;;;;;;;;4823823;29;20504;-84
2024/02/19 08:04:17;;;;;;;7.30;2.50;;;;;;;;;;4823051;29;20399;-84
2024/02/19 08:06:54;;;;;;;7.15;2.92;;;;;;;;;;4823683;29;20568;-84
2024/02/19 08:09:23;;;;;;;4.43;1.83;;;;;;;;;;4825521;29;20082;-84
2024/02/19 08:11:56;;;;;;;;;;;;;;;;;;4813334;29;20085;-84
2024/02/19 08:14:24;;;;;;;4.45;1.40;;;;;;;;;;4826581;29;19908;-84
2024/02/19 08:16:50;;;;;;;5.50;1.02;;;;;;;;;;4825895;29;20156;-83
2024/02/19 08:19:17;;;;;;;4.13;1.55;;;;;;;;;;4825288;29;20042;-84
2024/02/19 08:21:44;;;;;;;3.90;1.05;;;;;;;;;;4814566;29;20050;-84
2024/02/19 08:24:14;;;;;;;9.18;2.85;;;;;;;;;;4823616;29;20042;-84
2024/02/19 08:26:42;;;;;;;6.35;1.90;;;;;;;;;;4824543;29;20065;-83
2024/02/19 08:29:11;;;;;;;3.13;1.33;;;;;;;;;;4815528;29;20046;-84
2024/02/19 08:31:39;;;;;;;3.03;1.17;;;;;;;;;;4836370;29;20042;-84
2024/02/19 08:34:08;;;;;;;3.17;1.13;;;;;;;;;;4833582;24;21264;-84
2024/02/19 08:36:37;;;;;;;4.57;0.50;;;;;;;;;;4843373;29;20052;-84
2024/02/19 08:39:09;;;;;;;3.60;1.25;;;;;;;;;;4839928;29;20049;-84
2024/02/19 08:41:43;;;;;;;11.98;4.15;;;;;;;;;;4840622;24;20061;-85
2024/02/19 08:44:19;;;;;;;16.60;4.88;;;;;;;;;;4834713;29;20567;-85
2024/02/19 08:46:47;;;;;;;6.32;2.92;;;;;;;;;;4826725;29;20042;-84
2024/02/19 08:49:19;;;;;;;4.82;1.55;;;;;;;;;;4828863;29;20078;-85
2024/02/19 08:51:45;;;;;;;3.58;1.25;;;;;;;;;;4833926;24;20045;-85
2024/02/19 08:54:17;;;;;;;5.90;1.85;;;;;;;;;;4857642;29;20053;-84
2024/02/19 08:56:44;;;;;;;5.70;2.03;;;;;;;;;;4852581;29;20037;-84
2024/02/19 08:59:15;;;;;;;5.47;2.20;;;;;;;;;;4852826;29;20056;-85
2024/02/19 09:01:44;;;;;;;3.22;1.23;;;;;;;;;;4857927;29;20388;-84
2024/02/19 09:04:15;;;;;;;2.47;0.95;;;;;;;;;;4856745;24;20101;-85
2024/02/19 09:06:57;;;;;;;7.28;1.90;;;;;;;;;;4837922;29;20045;-85
2024/02/19 09:09:51;;;;;;;4.43;1.25;;;;;;;;;;4824749;29;20198;-85
2024/02/19 09:12:21;;;;;;;2.75;0.95;;;;;;;;;;4854398;24;20152;-85
2024/02/19 09:14:58;;;;;;;1.58;0.65;;;;;;;;;;4838045;24;20115;-85
2024/02/19 09:17:29;;;;;;;3.40;0.57;;;;;;;;;;4834088;29;20053;-85
2024/02/19 09:23:11;;;;;;;2.65;0.80;;;;;;;;;;4824265;29;20746;-86
2024/02/19 09:25:41;;;;;;;3.87;0.93;;;;;;;;;;4823629;24;20160;-85
2024/02/19 09:28:08;;;;;;;2.90;1.00;;;;;;;;;;4842725;29;20781;-85
2024/02/19 09:30:37;;;;;;;8.35;0.90;;;;;;;;;;4846086;29;20033;-85
2024/02/19 09:33:03;;;;;;;2.50;1.20;;;;;;;;;;4855061;29;20063;-83
2024/02/19 09:35:29;;;;;;;3.08;0.82;;;;;;;;;;4837317;29;20038;-84
2024/02/19 09:37:55;;;;;;;1.92;0.45;;;;;;;;;;4835301;29;20069;-84
2024/02/19 09:40:21;;;;;;;2.55;1.08;;;;;;;;;;4846710;29;20050;-83
2024/02/19 09:42:48;;;;;;;2.75;0.88;;;;;;;;;;4839991;29;20073;-84
2024/02/19 09:45:14;;;;;;;4.93;0.60;;;;;;;;;;4829782;29;20042;-85
2024/02/19 09:47:47;;;;;;;2.33;0.95;;;;;;;;;;4845226;29;20053;-84
2024/02/19 09:50:13;;;;;;;3.70;1.02;;;;;;;;;;4842477;29;20144;-83
2024/02/19 09:52:42;;;;;;;3.85;1.33;;;;;;;;;;4850952;29;20053;-84
2024/02/19 09:55:10;;;;;;;2.65;0.82;;;;;;;;;;4832192;29;20473;-85
2024/02/19 09:57:36;;;;;;;1.63;0.68;;;;;;;;;;4840158;29;20054;-84
2024/02/19 10:00:04;;;;;;;2.97;1.02;;;;;;;;;;4841779;29;20132;-83
2024/02/19 10:02:33;;;;;;;9.38;1.10;;;;;;;;;;4840219;29;20092;-86
2024/02/19 10:04:59;;;;;;;3.83;0.73;;;;;;;;;;4843363;29;20050;-83
2024/02/19 10:07:25;;;;;;;3.30;0.77;;;;;;;;;;4829120;29;20489;-83
2024/02/19 10:09:51;;;;;;;4.90;1.20;;;;;;;;;;4857408;29;20062;-84
2024/02/19 10:12:20;;;;;;;3.63;0.88;;;;;;;;;;4842965;29;20149;-86
2024/02/19 10:14:46;;;;;;;5.03;0.63;;;;;;;;;;4850780;29;20041;-86
2024/02/19 10:17:12;;;;;;;1.67;0.50;;;;;;;;;;4840570;29;20159;-86
2024/02/19 10:19:43;;;;;;;1.75;0.50;;;;;;;;;;4840881;29;20045;-88
2024/02/19 10:22:19;;;;;;;0.90;0.22;;;;;;;;;;4842869;29;20045;-86
2024/02/19 10:26:04;;;;;;;3.50;0.70;;;;;;;;;;4823082;29;20046;-88
2024/02/19 10:37:37;;;;;;;0.77;0.50;;;;;;;;;;4980343;24;20879;-88
2024/02/19 13:07:02;;;;;;;0.97;0.30;;;;;;;;;;4791102;29;20103;-88
2024/02/19 13:09:28;;;;;;;0.52;0.10;;;;;;;;;;4787529;30;20043;-89
2024/02/19 13:11:59;;;;;;;1.88;0.30;;;;;;;;;;4783116;29;20133;-90
2024/02/19 13:14:34;;;;;;;1.05;0.20;;;;;;;;;;4793693;29;20047;-91
2024/02/19 13:17:03;;;;;;;2.30;0.38;;;;;;;;;;4792343;29;20066;-89
2024/02/19 13:19:32;;;;;;;2.75;0.10;;;;;;;;;;4792311;29;20533;-90
2024/02/19 13:22:35;;;;;;;0.52;0.10;;;;;;;;;;4765726;30;20054;-91
2024/02/19 13:25:02;;;;;;;4.72;0.20;;;;;;;;;;4697898;30;20140;-86
2024/02/19 13:30:20;;;;;;;1.00;0.30;;;;;;;;;;4783409;29;20035;-91
2024/02/19 13:32:48;;;;;;;0.50;0.10;;;;;;;;;;4788080;29;20057;-91
2024/02/19 13:39:09;;;;;;;0.63;0.15;;;;;;;;;;4733706;30;20087;-86
2024/02/19 13:41:58;;;;;;;0.28;0.10;;;;;;;;;;4719962;30;20076;-90
2024/02/19 13:44:24;;;;;;;0.80;0.17;;;;;;;;;;4772638;29;20047;-86
2024/02/19 16:44:01;;;;;;;0.73;0.05;;;;;;;;;;871991;23;20405;-89
2024/02/19 17:47:07;;;;;;;1.15;0.40;;;;;;;;;;4834888;29;20048;-91
2024/02/19 17:49:33;;;;;;;1.42;0.20;;;;;;;;;;4830452;29;20227;-88
2024/02/19 17:52:17;;;;;;;1.02;0.30;;;;;;;;;;4842366;29;20051;-89
2024/02/19 17:54:55;;;;;;;0.40;0.17;;;;;;;;;;4823199;29;20057;-91
2024/02/19 18:00:26;;;;;;;0.88;0.17;;;;;;;;;;5058074;24;20902;-89
2024/02/19 18:02:52;;;;;;;1.55;0.30;;;;;;;;;;4843028;29;20161;-86
2024/02/19 18:05:21;;;;;;;1.65;0.30;;;;;;;;;;4842304;29;20070;-88
2024/02/19 18:13:33;;;;;;;1.15;0.47;;;;;;;;;;5177807;24;20058;-87
2024/02/19 18:21:00;;;;;;;;;;;;;;;;;;4870234;29;20504;-88
2024/02/19 18:23:28;;;;;;;0.70;0.30;;;;;;;;;;4861620;29;19907;-89
2024/02/19 18:25:55;;;;;;;4.07;0.63;;;;;;;;;;4861013;29;20060;-87
2024/02/19 18:28:21;;;;;;;1.95;0.50;;;;;;;;;;4846717;29;20070;-88
2024/02/19 18:30:47;;;;;;;3.20;0.40;;;;;;;;;;4860001;29;20073;-88
2024/02/19 18:33:15;;;;;;;2.05;0.38;;;;;;;;;;4845672;29;20107;-88
2024/02/19 18:39:06;;;;;;;5.30;2.13;;;;;;;;;;4771987;30;20058;-86
2024/02/19 18:41:42;;;;;;;19.70;8.02;;;;;;;;;;4789124;29;20047;-89
2024/02/19 18:44:22;;;;;;;17.35;3.85;;;;;;;;;;4748705;30;20040;-89
2024/02/19 18:46:48;;;;;;;12.65;4.82;;;;;;;;;;4730104;30;20044;-87
2024/02/19 18:54:32;;;;;;;6.47;1.05;;;;;;;;;;5795777;24;20021;-90
2024/02/19 18:57:03;;;;;;;;;;;;;;;;;;4826397;29;20058;-88
2024/02/19 19:07:58;;;;;;;7.25;2.38;;;;;;;;;;4997149;24;20084;-86
2024/02/19 19:34:14;;;;;;;4.38;1.63;;;;;;;;;;4980305;23;20060;-88
2024/02/19 19:43:52;;;;;;;2.65;0.50;;;;;;;;;;4838818;29;20083;-89
2024/02/19 20:35:58;;;;;;;11.52;2.28;;;;;;;;;;1986528;23;20325;-87
2024/02/19 20:38:33;;;;;;;6.75;1.70;;;;;;;;;;4838413;29;20121;-88
2024/02/19 20:41:08;;;;;;;4.10;0.60;;;;;;;;;;4842201;29;20061;-89
